createdAt,value
2022-12-11T00:02:52.487Z,90.30
2022-12-11T00:08:24.575Z,90.37
2022-12-11T00:13:56.594Z,90.62
2022-12-11T00:19:28.339Z,90.76
2022-12-11T00:25:00.244Z,90.79
2022-12-11T00:30:31.516Z,91.00
2022-12-11T00:36:03.298Z,91.15
2022-12-11T00:41:35.075Z,91.15
2022-12-11T00:47:07.515Z,91.36
2022-12-11T00:52:39.376Z,91.49
2022-12-11T00:58:11.167Z,90.88
2022-12-11T01:03:43.483Z,90.98
2022-12-11T01:09:15.835Z,91.19
2022-12-11T01:14:47.937Z,91.21
2022-12-11T01:25:49.438Z,91.10
2022-12-11T01:31:20.922Z,90.92
2022-12-11T01:36:52.750Z,90.91
2022-12-11T01:42:24.509Z,90.61
2022-12-11T01:47:56.404Z,90.48
2022-12-11T01:53:28.235Z,90.36
2022-12-11T01:59:00.322Z,90.14
2022-12-11T02:04:32.191Z,90.24
2022-12-11T02:10:04.468Z,89.90
2022-12-11T02:15:36.024Z,89.73
2022-12-11T02:21:07.940Z,89.73
2022-12-11T02:26:39.914Z,89.77
2022-12-11T02:32:12.171Z,89.68
2022-12-11T02:37:43.897Z,89.58
2022-12-11T02:43:15.615Z,89.62
2022-12-11T02:48:48.167Z,89.09
2022-12-11T02:54:20.402Z,88.93
2022-12-11T02:59:53.285Z,88.49
2022-12-11T03:05:31.196Z,88.35
2022-12-11T03:07:48.922Z,88.43
2022-12-11T03:13:20.387Z,88.48
2022-12-11T03:18:52.257Z,88.15
2022-12-11T03:24:24.217Z,88.51
2022-12-11T03:30:01.915Z,88.15
2022-12-11T03:35:33.762Z,88.29
2022-12-11T03:41:05.605Z,88.27
2022-12-11T03:46:37.399Z,88.21
2022-12-11T03:52:09.188Z,88.14
2022-12-11T03:57:40.961Z,87.89
2022-12-11T04:03:13.884Z,87.65
2022-12-11T04:08:45.041Z,87.58
2022-12-11T04:14:17.047Z,87.56
2022-12-11T04:19:49.152Z,87.08
2022-12-11T04:25:21.170Z,86.85
2022-12-11T04:30:58.926Z,86.60
2022-12-11T04:36:30.840Z,86.57
2022-12-11T04:42:02.965Z,86.61
2022-12-11T04:47:34.715Z,86.48
2022-12-11T04:53:06.839Z,86.34
2022-12-11T04:58:38.602Z,86.35
2022-12-11T05:04:16.369Z,85.87
2022-12-11T05:09:48.266Z,86.08
2022-12-11T05:15:20.560Z,86.00
2022-12-11T05:20:52.514Z,86.44
2022-12-11T05:26:24.263Z,86.44
2022-12-11T05:32:02.202Z,86.28
2022-12-11T05:37:33.937Z,85.64
2022-12-11T05:43:05.604Z,84.96
2022-12-11T05:48:38.243Z,84.84
2022-12-11T05:54:16.148Z,85.13
2022-12-11T05:59:49.048Z,85.40
2022-12-11T06:05:21.193Z,85.74
2022-12-11T06:10:52.931Z,85.87
2022-12-11T06:16:24.979Z,85.92
2022-12-11T06:27:25.867Z,86.22
2022-12-11T06:32:57.813Z,86.36
2022-12-11T06:38:29.652Z,86.56
2022-12-11T06:44:07.416Z,86.76
2022-12-11T06:49:40.131Z,86.77
2022-12-11T06:55:12.161Z,86.90
2022-12-11T07:00:43.867Z,87.00
2022-12-11T07:06:15.507Z,87.02
2022-12-11T07:11:47.118Z,86.80
2022-12-11T07:17:19.148Z,86.87
2022-12-11T07:22:50.854Z,86.40
2022-12-11T07:28:22.372Z,86.62
2022-12-11T07:33:54.532Z,86.74
2022-12-11T07:39:26.282Z,86.69
2022-12-11T07:44:58.270Z,86.46
2022-12-11T07:50:30.723Z,86.38
2022-12-11T07:56:01.902Z,86.26
2022-12-11T08:01:34.194Z,85.77
2022-12-11T08:07:06.251Z,85.61
2022-12-11T08:12:38.083Z,85.40
2022-12-11T08:18:09.745Z,84.44
2022-12-11T08:23:41.885Z,84.35
2022-12-11T08:29:14.295Z,84.29
2022-12-11T08:34:46.099Z,83.70
2022-12-11T08:40:17.712Z,83.59
2022-12-11T08:45:49.829Z,82.80
2022-12-11T08:51:21.501Z,82.28
2022-12-11T08:56:57.754Z,81.36
2022-12-11T09:02:24.983Z,81.49
2022-12-11T09:07:57.252Z,80.97
2022-12-11T09:13:29.483Z,81.40
2022-12-11T09:19:01.719Z,80.53
2022-12-11T09:24:33.686Z,80.86
2022-12-11T09:35:35.102Z,80.62
2022-12-11T09:41:07.135Z,80.27
2022-12-11T09:46:39.088Z,79.15
2022-12-11T09:52:11.021Z,78.94
2022-12-11T09:57:42.880Z,79.53
2022-12-11T10:08:46.371Z,78.92
2022-12-11T10:14:18.170Z,78.61
2022-12-11T10:19:50.437Z,78.39
2022-12-11T10:25:25.065Z,77.87
2022-12-11T10:30:58.642Z,76.99
2022-12-11T10:42:00.697Z,77.87
2022-12-11T10:47:33.760Z,77.52
2022-12-11T10:53:05.979Z,76.99
2022-12-11T10:58:37.776Z,77.12
2022-12-11T11:04:09.800Z,77.46
2022-12-11T11:09:48.153Z,77.65
2022-12-11T11:15:32.575Z,77.84
2022-12-11T11:21:07.237Z,77.29
2022-12-11T11:27:11.595Z,78.08
2022-12-11T11:32:12.130Z,77.03
2022-12-11T11:38:38.653Z,77.22
2022-12-11T11:44:11.040Z,77.66
2022-12-11T11:49:42.662Z,77.50
2022-12-11T11:55:18.587Z,76.19
2022-12-11T12:00:46.278Z,76.05
2022-12-11T12:06:18.278Z,76.81
2022-12-11T12:11:49.935Z,76.07
2022-12-11T12:17:21.927Z,76.23
2022-12-11T12:22:53.447Z,74.85
2022-12-11T12:28:25.877Z,73.81
2022-12-11T12:33:57.700Z,73.03
2022-12-11T12:39:29.602Z,72.89
2022-12-11T12:45:01.473Z,72.41
2022-12-11T12:50:33.352Z,73.03
2022-12-11T12:56:05.333Z,73.42
2022-12-11T13:01:37.280Z,73.38
2022-12-11T13:07:09.016Z,73.51
2022-12-11T13:12:40.803Z,73.28
2022-12-11T13:18:12.523Z,74.00
2022-12-11T13:23:44.449Z,74.34
2022-12-11T13:29:16.195Z,73.84
2022-12-11T13:34:48.165Z,74.49
2022-12-11T13:42:42.105Z,75.25
2022-12-11T13:48:16.915Z,74.53
2022-12-11T13:53:45.883Z,75.03
2022-12-11T13:59:17.737Z,75.46
2022-12-11T14:04:49.660Z,75.00
2022-12-11T14:10:21.464Z,75.72
2022-12-11T14:15:53.246Z,75.74
2022-12-11T14:21:25.306Z,76.03
2022-12-11T14:26:56.963Z,76.11
2022-12-11T14:32:28.757Z,76.21
2022-12-11T14:38:00.661Z,76.31
2022-12-11T14:43:32.836Z,76.64
2022-12-11T14:49:04.578Z,76.88
2022-12-11T14:54:36.828Z,77.30
2022-12-11T15:00:09.214Z,77.73
2022-12-11T15:05:41.163Z,78.21
2022-12-11T15:11:12.441Z,78.66
2022-12-11T15:16:44.182Z,78.82
2022-12-11T15:22:16.275Z,79.05
2022-12-11T15:27:47.761Z,79.29
2022-12-11T15:33:21.435Z,79.18
2022-12-11T15:38:53.997Z,79.64
2022-12-11T15:46:48.303Z,79.57
2022-12-11T15:52:20.785Z,80.04
2022-12-11T15:57:52.831Z,79.99
2022-12-11T16:05:38.319Z,80.29
2022-12-11T16:11:11.407Z,80.46
2022-12-11T16:16:43.398Z,80.55
2022-12-11T16:22:15.043Z,80.64
2022-12-11T16:27:47.134Z,80.80
2022-12-11T16:33:18.888Z,80.80
2022-12-11T16:38:53.875Z,80.93
2022-12-11T16:44:22.522Z,80.93
2022-12-11T16:49:54.475Z,81.07
2022-12-11T16:55:26.446Z,81.16
2022-12-11T17:00:58.110Z,81.20
2022-12-11T17:06:36.197Z,80.98
2022-12-11T17:12:08.466Z,81.28
2022-12-11T17:17:40.329Z,81.03
2022-12-11T17:23:24.077Z,80.75
2022-12-11T17:28:56.200Z,80.75
2022-12-11T17:34:38.045Z,80.62
2022-12-11T17:40:06.385Z,80.39
2022-12-11T17:45:38.740Z,80.47
2022-12-11T17:51:16.494Z,80.52
2022-12-11T17:56:48.313Z,80.68
2022-12-11T18:02:20.202Z,80.48
2022-12-11T18:07:57.424Z,81.00
2022-12-11T18:13:23.739Z,81.18
2022-12-11T18:18:55.737Z,81.24
2022-12-11T18:24:27.516Z,81.29
2022-12-11T18:29:59.315Z,81.50
2022-12-11T18:35:31.271Z,81.67
2022-12-11T18:41:03.008Z,81.77
2022-12-11T18:46:34.917Z,81.90
2022-12-11T18:52:06.764Z,81.85
2022-12-11T18:57:38.684Z,81.97
2022-12-11T19:03:10.340Z,83.85
2022-12-11T19:08:42.293Z,85.67
2022-12-11T19:14:14.094Z,84.71
2022-12-11T19:19:46.365Z,84.75
2022-12-11T19:25:18.487Z,84.53
2022-12-11T19:30:50.864Z,84.52
2022-12-11T19:36:23.724Z,84.83
2022-12-11T19:41:56.091Z,84.76
2022-12-11T19:47:28.304Z,84.51
2022-12-11T19:53:00.223Z,84.89
2022-12-11T19:58:32.042Z,85.43
2022-12-11T20:04:03.852Z,85.87
2022-12-11T20:09:35.604Z,85.22
2022-12-11T20:15:07.318Z,85.74
2022-12-11T20:20:39.515Z,85.92
2022-12-11T20:26:11.325Z,86.09
2022-12-11T20:31:49.329Z,86.01
2022-12-11T20:42:56.726Z,85.07
2022-12-11T20:48:28.673Z,84.77
2022-12-11T20:54:00.962Z,84.62
2022-12-11T20:59:33.463Z,84.26
2022-12-11T21:05:05.525Z,83.79
2022-12-11T21:10:37.684Z,83.37
2022-12-11T21:16:09.322Z,83.23
2022-12-11T21:21:41.412Z,82.88
2022-12-11T21:27:13.769Z,83.13
2022-12-11T21:32:45.645Z,82.93
2022-12-11T21:38:17.659Z,83.03
2022-12-11T21:49:21.890Z,82.97
2022-12-11T21:55:00.187Z,82.89
2022-12-11T22:00:38.698Z,82.85
2022-12-11T22:06:10.766Z,82.76
2022-12-11T22:11:42.951Z,82.59
2022-12-11T22:17:14.867Z,82.65
2022-12-11T22:22:46.668Z,82.78
2022-12-11T22:33:48.597Z,83.23
2022-12-11T22:39:20.677Z,83.54
2022-12-11T22:44:52.393Z,83.89
2022-12-11T22:50:24.501Z,84.12
2022-12-11T23:01:29.396Z,84.88
2022-12-11T23:07:01.424Z,84.87
2022-12-11T23:12:33.639Z,84.84
2022-12-11T23:18:05.559Z,84.88
2022-12-11T23:23:37.497Z,84.68
2022-12-11T23:29:09.549Z,84.65
2022-12-11T23:34:41.758Z,84.52
2022-12-11T23:40:14.068Z,84.38
2022-12-11T23:51:15.733Z,84.16
